createdAt,value
2023-05-15T01:05:53.914Z,15.76
2023-05-15T01:08:38.013Z,15.74
2023-05-15T01:11:09.001Z,15.73
2023-05-15T01:13:36.662Z,15.73
2023-05-15T01:16:07.212Z,15.71
2023-05-15T01:18:36.485Z,15.70
2023-05-15T01:21:10.468Z,15.69
2023-05-15T01:24:16.538Z,15.67
2023-05-15T01:27:03.493Z,15.64
2023-05-15T01:29:41.321Z,15.62
2023-05-15T01:32:19.573Z,15.60
2023-05-15T01:35:02.390Z,15.59
2023-05-15T01:37:32.045Z,15.57
2023-05-15T01:40:07.465Z,15.55
2023-05-15T01:42:39.849Z,15.54
2023-05-15T01:45:11.731Z,15.53
2023-05-15T01:47:43.945Z,15.51
2023-05-15T01:50:15.635Z,15.50
2023-05-15T01:52:49.156Z,15.48
2023-05-15T01:55:18.796Z,15.47
2023-05-15T01:57:48.567Z,15.45
2023-05-15T02:00:17.971Z,15.43
2023-05-15T02:02:46.817Z,15.42
2023-05-15T02:05:15.649Z,15.41
2023-05-15T02:07:44.550Z,15.39
2023-05-15T02:10:13.044Z,15.38
2023-05-15T02:12:42.334Z,15.36
2023-05-15T02:15:11.426Z,15.35
2023-05-15T02:17:39.696Z,15.33
2023-05-15T02:20:08.601Z,15.32
2023-05-15T02:22:38.716Z,15.30
2023-05-15T02:25:06.705Z,15.29
2023-05-15T02:27:51.351Z,15.27
2023-05-15T02:30:43.081Z,15.25
2023-05-15T02:33:41.595Z,15.23
2023-05-15T02:36:14.301Z,15.19
2023-05-15T02:38:50.488Z,15.17
2023-05-15T02:41:19.305Z,15.16
2023-05-15T02:43:50.432Z,15.15
2023-05-15T02:46:19.904Z,15.14
2023-05-15T02:48:48.919Z,15.12
2023-05-15T02:51:16.640Z,15.11
2023-05-15T02:53:44.407Z,15.09
2023-05-15T02:56:12.149Z,15.07
2023-05-15T02:58:40.554Z,15.05
2023-05-15T03:01:08.499Z,15.03
2023-05-15T03:03:36.284Z,15.03
2023-05-15T03:06:04.141Z,15.01
2023-05-15T03:08:31.949Z,15.00
2023-05-15T03:10:59.635Z,14.99
2023-05-15T03:13:27.305Z,14.98
2023-05-15T03:15:55.021Z,14.97
2023-05-15T03:18:22.939Z,14.97
2023-05-15T03:20:52.871Z,14.96
2023-05-15T03:23:20.742Z,14.96
2023-05-15T03:25:48.464Z,14.95
2023-05-15T03:28:16.207Z,14.94
2023-05-15T03:30:45.312Z,14.94
2023-05-15T03:33:13.058Z,14.94
2023-05-15T03:35:40.867Z,14.93
2023-05-15T03:38:08.605Z,14.93
2023-05-15T03:40:39.599Z,14.92
2023-05-15T03:43:07.323Z,14.91
2023-05-15T03:45:35.430Z,14.91
2023-05-15T03:48:03.210Z,14.90
2023-05-15T03:50:31.127Z,14.89
2023-05-15T03:53:00.344Z,14.89
2023-05-15T03:55:28.159Z,14.88
2023-05-15T03:57:57.992Z,14.87
2023-05-15T04:00:26.027Z,14.87
2023-05-15T04:02:54.055Z,14.86
2023-05-15T04:05:22.523Z,14.86
2023-05-15T04:07:50.491Z,14.86
2023-05-15T04:10:18.255Z,14.85
2023-05-15T04:12:45.991Z,14.85
2023-05-15T04:15:15.625Z,14.85
2023-05-15T04:17:48.279Z,14.85
2023-05-15T04:20:18.045Z,14.85
2023-05-15T04:22:46.227Z,14.85
2023-05-15T04:25:15.018Z,14.84
2023-05-15T04:27:43.808Z,14.85
2023-05-15T04:30:12.727Z,14.86
2023-05-15T04:32:40.837Z,14.85
2023-05-15T04:35:10.705Z,14.84
2023-05-15T04:37:39.772Z,14.84
2023-05-15T04:40:09.113Z,14.84
2023-05-15T04:42:39.189Z,14.84
2023-05-15T04:45:09.145Z,14.84
2023-05-15T04:47:37.186Z,14.85
2023-05-15T04:50:05.336Z,14.84
2023-05-15T04:52:33.337Z,14.84
2023-05-15T04:55:01.052Z,14.84
2023-05-15T04:57:30.510Z,14.84
2023-05-15T04:59:58.299Z,14.84
2023-05-15T05:02:26.295Z,14.83
2023-05-15T05:04:54.062Z,14.82
2023-05-15T05:07:21.820Z,14.83
2023-05-15T05:09:49.499Z,14.82
2023-05-15T05:12:17.132Z,14.81
2023-05-15T05:14:46.045Z,14.80
2023-05-15T05:17:13.984Z,14.79
2023-05-15T05:19:41.799Z,14.78
2023-05-15T05:22:09.822Z,14.78
2023-05-15T05:24:37.583Z,14.78
2023-05-15T05:27:05.704Z,14.78
2023-05-15T05:29:33.879Z,14.78
2023-05-15T05:32:01.738Z,14.78
2023-05-15T05:34:29.486Z,14.77
2023-05-15T05:36:57.186Z,14.76
2023-05-15T05:39:24.944Z,14.76
2023-05-15T05:41:52.699Z,14.75
2023-05-15T05:44:20.400Z,14.75
2023-05-15T05:46:48.309Z,14.76
2023-05-15T05:49:16.160Z,14.75
2023-05-15T05:51:45.966Z,14.76
2023-05-15T05:54:15.048Z,14.77
2023-05-15T05:56:42.931Z,14.77
2023-05-15T05:59:10.843Z,14.79
2023-05-15T06:01:38.594Z,14.81
2023-05-15T06:04:06.448Z,14.84
2023-05-15T06:06:34.699Z,14.86
2023-05-15T06:09:04.075Z,14.88
2023-05-15T06:11:32.913Z,14.90
2023-05-15T06:14:00.873Z,14.93
2023-05-15T06:16:28.595Z,14.95
2023-05-15T06:18:56.315Z,14.97
2023-05-15T06:21:24.066Z,14.99
2023-05-15T06:23:51.763Z,15.01
2023-05-15T06:26:19.899Z,15.02
2023-05-15T06:28:47.585Z,15.04
2023-05-15T06:31:15.612Z,15.05
2023-05-15T06:33:43.483Z,15.05
2023-05-15T06:36:11.131Z,15.05
2023-05-15T06:38:39.645Z,15.04
2023-05-15T06:41:07.408Z,15.03
2023-05-15T06:43:36.425Z,15.01
2023-05-15T06:46:04.590Z,14.99
2023-05-15T06:48:32.322Z,14.98
2023-05-15T06:51:00.044Z,14.96
2023-05-15T06:53:29.655Z,14.93
2023-05-15T06:55:57.749Z,14.91
2023-05-15T06:58:25.625Z,14.88
2023-05-15T07:00:54.262Z,14.84
2023-05-15T07:03:24.227Z,14.79
2023-05-15T07:05:52.331Z,14.75
2023-05-15T07:08:20.766Z,14.71
2023-05-15T07:10:49.291Z,14.67
2023-05-15T07:13:18.172Z,14.64
2023-05-15T07:15:45.953Z,14.60
2023-05-15T07:18:13.703Z,14.57
2023-05-15T07:20:41.350Z,14.53
2023-05-15T07:23:09.069Z,14.50
2023-05-15T07:25:37.388Z,14.48
2023-05-15T07:28:05.117Z,14.45
2023-05-15T07:30:32.935Z,14.42
2023-05-15T07:33:01.084Z,14.39
2023-05-15T07:35:28.991Z,14.37
2023-05-15T07:37:56.761Z,14.35
2023-05-15T07:40:24.564Z,14.32
2023-05-15T07:42:52.246Z,14.30
2023-05-15T07:45:20.022Z,14.29
2023-05-15T07:47:49.191Z,14.28
2023-05-15T07:50:17.876Z,14.27
2023-05-15T07:52:45.651Z,14.26
2023-05-15T07:55:13.621Z,14.25
2023-05-15T07:57:41.293Z,14.25
2023-05-15T08:00:11.164Z,14.24
2023-05-15T08:02:46.249Z,14.25
2023-05-15T08:05:14.356Z,14.25
2023-05-15T08:07:42.086Z,14.25
2023-05-15T08:10:10.782Z,14.25
2023-05-15T08:12:38.561Z,14.25
2023-05-15T08:15:07.133Z,14.25
2023-05-15T08:17:34.914Z,14.26
2023-05-15T08:20:03.160Z,14.26
2023-05-15T08:22:31.215Z,14.26
2023-05-15T08:25:00.214Z,14.26
2023-05-15T08:27:28.120Z,14.25
2023-05-15T08:29:55.874Z,14.26
2023-05-15T08:32:23.620Z,14.25
2023-05-15T08:34:51.282Z,14.27
2023-05-15T08:37:19.071Z,14.28
2023-05-15T08:39:46.809Z,14.29
2023-05-15T08:42:23.855Z,14.30
2023-05-15T08:44:52.820Z,14.31
2023-05-15T08:47:21.284Z,14.32
2023-05-15T08:49:55.202Z,14.32
2023-05-15T08:52:23.852Z,14.33
2023-05-15T08:54:53.149Z,14.33
2023-05-15T08:57:21.991Z,14.33
2023-05-15T08:59:51.618Z,14.32
2023-05-15T09:02:20.405Z,14.33
2023-05-15T09:04:48.331Z,14.32
2023-05-15T09:07:17.755Z,14.30
2023-05-15T09:09:46.301Z,14.29
2023-05-15T09:12:17.272Z,14.27
2023-05-15T09:14:45.603Z,14.23
2023-05-15T09:17:13.403Z,14.21
2023-05-15T09:19:41.992Z,14.19
2023-05-15T09:22:18.120Z,14.18
2023-05-15T09:24:48.262Z,14.16
2023-05-15T09:27:16.274Z,14.15
2023-05-15T09:29:44.021Z,14.14
2023-05-15T09:32:14.306Z,14.13
2023-05-15T09:34:44.945Z,14.13
2023-05-15T09:37:33.941Z,14.14
2023-05-15T09:40:09.996Z,14.12
2023-05-15T09:42:38.806Z,14.11
2023-05-15T09:45:18.219Z,14.11
2023-05-15T09:47:46.910Z,14.11
2023-05-15T09:50:21.374Z,14.10
2023-05-15T09:52:50.580Z,14.10
2023-05-15T09:55:21.680Z,14.10
2023-05-15T09:58:08.882Z,14.09
2023-05-15T10:00:48.271Z,14.09
2023-05-15T10:03:21.971Z,14.08
2023-05-15T10:05:49.815Z,14.08
2023-05-15T10:08:27.505Z,14.08
2023-05-15T10:11:03.384Z,14.09
2023-05-15T10:13:34.266Z,14.11
2023-05-15T10:16:03.861Z,14.10
2023-05-15T10:18:34.038Z,14.10
2023-05-15T10:21:04.349Z,14.08
2023-05-15T10:23:35.796Z,14.06
2023-05-15T10:26:11.131Z,14.06
2023-05-15T10:28:39.637Z,14.05
2023-05-15T10:31:09.022Z,14.04
2023-05-15T10:33:38.288Z,14.03
2023-05-15T10:36:08.553Z,14.03
2023-05-15T10:38:37.203Z,14.02
2023-05-15T10:41:16.519Z,14.01
2023-05-15T10:43:46.667Z,14.00
2023-05-15T10:46:16.149Z,13.99
2023-05-15T10:48:44.016Z,14.00
2023-05-15T10:51:16.941Z,14.00
2023-05-15T10:53:45.757Z,14.00
2023-05-15T10:56:16.588Z,14.01
2023-05-15T10:58:49.545Z,14.01
2023-05-15T11:01:32.050Z,14.01
2023-05-15T11:04:13.175Z,14.01
2023-05-15T11:06:44.091Z,14.01
2023-05-15T11:09:27.903Z,14.01
2023-05-15T11:11:57.146Z,14.01
2023-05-15T11:14:27.537Z,14.03
2023-05-15T11:16:55.382Z,14.03
2023-05-15T11:19:25.171Z,14.04
2023-05-15T11:22:01.155Z,14.04
2023-05-15T11:24:46.865Z,14.04
2023-05-15T11:27:42.314Z,14.04
2023-05-15T11:30:25.079Z,14.02
2023-05-15T11:33:03.045Z,14.02
2023-05-15T11:35:34.259Z,14.01
2023-05-15T11:38:15.106Z,14.01
2023-05-15T11:40:52.903Z,14.00
2023-05-15T11:43:36.164Z,13.99
2023-05-15T11:46:08.324Z,13.97
2023-05-15T11:48:50.013Z,13.95
2023-05-15T11:51:21.850Z,13.94
2023-05-15T11:53:51.346Z,13.94
2023-05-15T11:56:23.298Z,13.94
2023-05-15T11:58:54.248Z,13.94
2023-05-15T12:01:22.157Z,13.93
2023-05-15T12:03:53.413Z,13.93
2023-05-15T12:06:21.551Z,13.94
2023-05-15T12:08:53.349Z,13.94
2023-05-15T12:11:25.338Z,13.93
2023-05-15T12:13:54.898Z,13.94
2023-05-15T12:16:27.476Z,13.93
2023-05-15T12:18:58.513Z,13.93
2023-05-15T12:21:27.303Z,13.93
2023-05-15T12:24:07.593Z,13.92
2023-05-15T12:26:36.508Z,13.91
2023-05-15T12:29:05.639Z,13.89
2023-05-15T12:31:35.706Z,13.90
2023-05-15T12:34:03.972Z,13.90
2023-05-15T12:36:31.787Z,13.90
2023-05-15T12:39:08.117Z,13.89
2023-05-15T12:41:38.585Z,13.89
2023-05-15T12:44:06.973Z,13.89
2023-05-15T12:46:34.734Z,13.90
2023-05-15T12:49:02.727Z,13.90
2023-05-15T12:51:30.727Z,13.91
2023-05-15T12:53:58.908Z,13.92
2023-05-15T12:56:30.692Z,13.93
2023-05-15T12:59:01.079Z,13.93
2023-05-15T13:01:28.956Z,13.93
2023-05-15T13:03:57.480Z,13.93
2023-05-15T13:06:34.783Z,13.93
2023-05-15T13:09:13.216Z,13.93
2023-05-15T13:11:45.197Z,13.94
2023-05-15T13:14:17.651Z,13.94
2023-05-15T13:16:47.046Z,13.95
2023-05-15T13:19:16.019Z,13.97
2023-05-15T13:21:48.458Z,13.97
2023-05-15T13:24:16.219Z,13.98
2023-05-15T13:26:43.883Z,13.99
2023-05-15T13:29:11.579Z,13.99
2023-05-15T13:31:39.507Z,14.00
2023-05-15T13:34:07.269Z,14.00
2023-05-15T13:36:35.033Z,14.01
2023-05-15T13:39:03.877Z,14.01
2023-05-15T13:41:31.665Z,14.01
2023-05-15T13:44:00.206Z,14.01
2023-05-15T13:46:28.137Z,14.01
2023-05-15T13:48:55.841Z,14.02
2023-05-15T13:51:23.525Z,14.03
2023-05-15T13:53:51.289Z,14.05
2023-05-15T13:56:18.995Z,14.07
2023-05-15T13:58:46.711Z,14.08
2023-05-15T14:01:14.580Z,14.09
2023-05-15T14:03:42.412Z,14.10
2023-05-15T14:06:10.399Z,14.12
2023-05-15T14:08:38.098Z,14.13
2023-05-15T14:11:05.784Z,14.13
2023-05-15T14:13:36.437Z,14.14
2023-05-15T14:16:04.270Z,14.15
2023-05-15T14:18:32.301Z,14.17
2023-05-15T14:21:00.233Z,14.18
2023-05-15T14:23:28.118Z,14.19
2023-05-15T14:25:55.952Z,14.22
2023-05-15T14:28:23.920Z,14.23
2023-05-15T14:30:51.714Z,14.26
2023-05-15T14:33:19.995Z,14.28
2023-05-15T14:35:48.335Z,14.30
2023-05-15T14:38:15.983Z,14.32
2023-05-15T14:40:43.656Z,14.34
2023-05-15T14:43:11.598Z,14.35
2023-05-15T14:45:39.345Z,14.37
2023-05-15T14:48:07.124Z,14.38
2023-05-15T14:50:35.130Z,14.39
2023-05-15T14:53:02.888Z,14.40
2023-05-15T14:55:30.720Z,14.40
2023-05-15T14:57:58.542Z,14.42
2023-05-15T15:00:26.573Z,14.43
2023-05-15T15:02:54.582Z,14.43
2023-05-15T15:05:22.795Z,14.44
2023-05-15T15:08:05.620Z,14.46
2023-05-15T15:10:36.883Z,14.47
2023-05-15T15:13:05.592Z,14.47
2023-05-15T15:15:34.653Z,14.50
2023-05-15T15:18:02.377Z,14.51
2023-05-15T15:20:30.289Z,14.53
2023-05-15T15:22:58.034Z,14.55
2023-05-15T15:25:26.469Z,14.59
2023-05-15T15:27:54.247Z,14.61
2023-05-15T15:30:21.987Z,14.64
2023-05-15T15:32:49.970Z,14.67
2023-05-15T15:35:17.842Z,14.69
2023-05-15T15:37:45.804Z,14.72
2023-05-15T15:40:13.882Z,14.75
2023-05-15T15:42:41.593Z,14.79
2023-05-15T15:45:09.373Z,14.83
2023-05-15T15:47:37.184Z,14.86
2023-05-15T15:50:05.417Z,14.88
2023-05-15T15:52:33.211Z,14.92
2023-05-15T15:55:00.993Z,14.95
2023-05-15T15:57:29.588Z,14.98
2023-05-15T15:59:57.372Z,15.00
2023-05-15T16:02:25.193Z,15.02
2023-05-15T16:04:53.085Z,15.04
2023-05-15T16:07:20.757Z,15.06
2023-05-15T16:09:56.939Z,15.08
2023-05-15T16:12:36.113Z,15.10
2023-05-15T16:15:20.156Z,15.13
2023-05-15T16:17:54.360Z,15.15
2023-05-15T16:20:23.794Z,15.17
2023-05-15T16:22:51.945Z,15.18
2023-05-15T16:25:19.809Z,15.20
2023-05-15T16:27:47.613Z,15.21
2023-05-15T16:30:15.425Z,15.23
2023-05-15T16:32:43.131Z,15.25
2023-05-15T16:35:10.897Z,15.26
2023-05-15T16:37:38.952Z,15.27
2023-05-15T16:40:08.492Z,15.28
2023-05-15T16:42:37.990Z,15.28
2023-05-15T16:45:07.107Z,15.28
2023-05-15T16:47:38.419Z,15.28
2023-05-15T16:50:07.055Z,15.27
2023-05-15T16:52:34.843Z,15.26
2023-05-15T16:55:03.388Z,15.25
2023-05-15T16:57:31.437Z,15.23
2023-05-15T16:59:59.290Z,15.23
2023-05-15T17:02:27.168Z,15.21
2023-05-15T17:04:55.222Z,15.20
2023-05-15T17:07:22.914Z,15.18
2023-05-15T17:09:50.671Z,15.17
2023-05-15T17:12:18.422Z,15.16
2023-05-15T17:14:46.276Z,15.14
2023-05-15T17:17:13.972Z,15.12
2023-05-15T17:19:41.631Z,15.10
2023-05-15T17:22:09.364Z,15.08
2023-05-15T17:24:49.943Z,15.06
2023-05-15T17:27:20.090Z,15.05
2023-05-15T17:29:48.226Z,15.04
2023-05-15T17:32:16.807Z,15.03
2023-05-15T17:34:45.374Z,15.02
2023-05-15T17:37:13.251Z,15.02
2023-05-15T17:39:41.049Z,15.02
2023-05-15T17:42:08.878Z,15.02
2023-05-15T17:44:36.572Z,15.03
2023-05-15T17:47:04.638Z,15.04
2023-05-15T17:49:34.175Z,15.04
2023-05-15T17:52:04.961Z,15.05
2023-05-15T17:54:32.646Z,15.06
2023-05-15T17:57:00.401Z,15.07
2023-05-15T17:59:28.478Z,15.08
2023-05-15T18:01:56.467Z,15.09
2023-05-15T18:04:24.348Z,15.11
2023-05-15T18:06:52.347Z,15.12
2023-05-15T18:09:24.316Z,15.12
2023-05-15T18:11:52.561Z,15.12
2023-05-15T18:14:20.356Z,15.12
2023-05-15T18:16:48.040Z,15.12
2023-05-15T18:19:15.826Z,15.12
2023-05-15T18:21:43.780Z,15.12
2023-05-15T18:24:11.541Z,15.12
2023-05-15T18:26:39.199Z,15.11
2023-05-15T18:29:06.884Z,15.11
2023-05-15T18:31:34.712Z,15.11
2023-05-15T18:34:02.500Z,15.10
2023-05-15T18:36:31.222Z,15.09
2023-05-15T18:38:59.389Z,15.09
2023-05-15T18:41:27.129Z,15.09
2023-05-15T18:43:55.851Z,15.08
2023-05-15T18:46:25.706Z,15.07
2023-05-15T18:48:56.180Z,15.07
2023-05-15T18:51:24.374Z,15.05
2023-05-15T18:53:52.077Z,15.04
2023-05-15T18:56:19.813Z,15.03
2023-05-15T18:58:50.552Z,15.01
2023-05-15T19:01:18.400Z,14.99
2023-05-15T19:03:46.247Z,14.97
2023-05-15T19:06:19.614Z,14.94
2023-05-15T19:08:48.408Z,14.93
2023-05-15T19:11:16.484Z,14.90
2023-05-15T19:13:45.488Z,14.88
2023-05-15T19:16:13.436Z,14.86
2023-05-15T19:18:41.195Z,14.83
2023-05-15T19:21:08.959Z,14.79
2023-05-15T19:23:36.891Z,14.76
2023-05-15T19:26:04.594Z,14.72
2023-05-15T19:28:32.490Z,14.69
2023-05-15T19:31:00.289Z,14.65
2023-05-15T19:33:28.006Z,14.61
2023-05-15T19:35:55.986Z,14.57
2023-05-15T19:38:23.739Z,14.52
2023-05-15T19:40:51.498Z,14.48
2023-05-15T19:43:19.340Z,14.43
2023-05-15T19:45:47.393Z,14.39
2023-05-15T19:48:15.169Z,14.34
2023-05-15T19:50:45.047Z,14.29
2023-05-15T19:53:13.026Z,14.24
2023-05-15T19:55:40.904Z,14.21
2023-05-15T19:58:08.731Z,14.18
2023-05-15T20:00:36.504Z,14.14
2023-05-15T20:03:04.813Z,14.11
2023-05-15T20:05:32.751Z,14.09
2023-05-15T20:08:00.538Z,14.06
2023-05-15T20:10:28.401Z,14.03
2023-05-15T20:12:56.149Z,14.00
2023-05-15T20:15:24.078Z,13.98
2023-05-15T20:17:51.756Z,13.95
2023-05-15T20:20:19.777Z,13.92
2023-05-15T20:22:47.543Z,13.91
2023-05-15T20:25:15.308Z,13.90
2023-05-15T20:27:43.035Z,13.89
2023-05-15T20:30:11.585Z,13.88
2023-05-15T20:32:39.542Z,13.88
2023-05-15T20:35:07.920Z,13.87
2023-05-15T20:37:36.049Z,13.87
2023-05-15T20:40:05.245Z,13.85
2023-05-15T20:42:32.969Z,13.85
2023-05-15T20:45:00.713Z,13.84
2023-05-15T20:47:29.094Z,13.83
2023-05-15T20:49:57.121Z,13.82
2023-05-15T20:52:24.955Z,13.82
2023-05-15T20:54:52.712Z,13.82
2023-05-15T20:57:20.773Z,13.81
2023-05-15T20:59:48.492Z,13.81
2023-05-15T21:02:16.353Z,13.80
2023-05-15T21:04:44.160Z,13.80
2023-05-15T21:07:12.002Z,13.80
2023-05-15T21:09:39.857Z,13.80
2023-05-15T21:12:07.718Z,13.79
2023-05-15T21:14:35.562Z,13.79
2023-05-15T21:17:03.265Z,13.78
2023-05-15T21:19:30.948Z,13.78
2023-05-15T21:21:58.575Z,13.77
2023-05-15T21:24:26.308Z,13.76
2023-05-15T21:26:54.110Z,13.75
2023-05-15T21:29:21.774Z,13.74
2023-05-15T21:31:49.606Z,13.74
2023-05-15T21:34:17.310Z,13.72
2023-05-15T21:36:44.965Z,13.71
2023-05-15T21:39:12.691Z,13.71
2023-05-15T21:41:40.538Z,13.70
2023-05-15T21:44:08.360Z,13.69
2023-05-15T21:46:36.079Z,13.68
2023-05-15T21:49:03.947Z,13.67
2023-05-15T21:51:31.635Z,13.65
2023-05-15T21:53:59.348Z,13.64
2023-05-15T21:56:27.032Z,13.64
2023-05-15T21:58:54.786Z,13.63
2023-05-15T22:01:22.478Z,13.62
2023-05-15T22:03:50.736Z,13.61
2023-05-15T22:06:18.530Z,13.60
2023-05-15T22:08:46.214Z,13.58
2023-05-15T22:11:13.921Z,13.56
2023-05-15T22:13:41.583Z,13.55
2023-05-15T22:16:09.541Z,13.53
2023-05-15T22:18:37.782Z,13.52
2023-05-15T22:21:06.308Z,13.49
2023-05-15T22:23:34.064Z,13.48
2023-05-15T22:26:02.155Z,13.47
2023-05-15T22:28:29.850Z,13.44
2023-05-15T22:30:57.530Z,13.42
2023-05-15T22:33:25.613Z,13.40
2023-05-15T22:35:53.991Z,13.38
2023-05-15T22:38:21.746Z,13.36
2023-05-15T22:40:51.013Z,13.36
2023-05-15T22:43:18.844Z,13.33
2023-05-15T22:45:46.585Z,13.33
2023-05-15T22:48:15.433Z,13.31
2023-05-15T22:50:43.953Z,13.31
2023-05-15T22:53:11.663Z,13.29
2023-05-15T22:55:39.491Z,13.27
2023-05-15T22:58:07.169Z,13.25
2023-05-15T23:00:35.241Z,13.24
2023-05-15T23:03:03.036Z,13.22
2023-05-15T23:05:30.861Z,13.21
2023-05-15T23:07:58.489Z,13.19
2023-05-15T23:10:26.449Z,13.17
2023-05-15T23:12:54.244Z,13.15
2023-05-15T23:15:21.868Z,13.13
2023-05-15T23:17:49.660Z,13.12
2023-05-15T23:20:18.038Z,13.10
2023-05-15T23:22:45.772Z,13.08
2023-05-15T23:25:13.496Z,13.06
2023-05-15T23:27:41.205Z,13.03
2023-05-15T23:30:09.826Z,13.00
2023-05-15T23:32:37.797Z,12.97
2023-05-15T23:35:05.939Z,12.96
2023-05-15T23:37:33.597Z,12.92
2023-05-15T23:40:01.404Z,12.89
2023-05-15T23:42:29.918Z,12.86
2023-05-15T23:44:57.556Z,12.85
2023-05-15T23:47:25.339Z,12.84
2023-05-15T23:49:53.027Z,12.82
2023-05-15T23:52:20.752Z,12.81
2023-05-15T23:54:48.505Z,12.80
2023-05-15T23:57:17.107Z,12.79
2023-05-15T23:59:44.977Z,12.78
